Time;durP1;ratioP1;P1;durP2;ratioP2;P2;SDS_P1;SDS_P2;PMS_P1;PMS_P2;Temp;Humidity;BMP_temperature;BMP_pressure;BME280_temperature;BME280_humidity;BME280_pressure;Samples;Min_cycle;Max_cycle;Signal;HPM_P1;HPM_P2
2023/12/07 00:00:36;;;;;;;13.07;9.53;;;2.30;90.90;;;;;;6245149;23;20012;-77
2023/12/07 00:03:02;;;;;;;12.53;9.17;;;2.30;90.90;;;;;;6245193;23;20009;-77
2023/12/07 00:05:28;;;;;;;11.57;8.03;;;2.30;90.90;;;;;;6245189;23;20039;-77
2023/12/07 00:07:53;;;;;;;12.00;8.10;;;2.30;91.10;;;;;;6217830;23;20055;-77
2023/12/07 00:10:19;;;;;;;10.13;8.63;;;2.30;90.90;;;;;;6218005;23;20018;-77
2023/12/07 00:12:44;;;;;;;10.43;7.67;;;2.20;90.80;;;;;;6245053;23;20013;-77
2023/12/07 00:15:10;;;;;;;12.27;9.03;;;2.20;90.80;;;;;;6244929;23;20090;-77
2023/12/07 00:17:35;;;;;;;13.20;9.27;;;2.20;90.80;;;;;;6245219;23;20004;-77
2023/12/07 00:20:03;;;;;;;15.90;11.20;;;2.20;90.80;;;;;;6244951;23;20008;-77
2023/12/07 00:22:29;;;;;;;13.13;8.27;;;2.20;90.70;;;;;;6244896;23;20012;-77
2023/12/07 00:24:55;;;;;;;10.20;8.23;;;2.20;90.70;;;;;;6245496;23;20043;-77
2023/12/07 00:27:21;;;;;;;11.80;8.53;;;2.20;90.80;;;;;;6219708;23;20069;-77
2023/12/07 00:29:46;;;;;;;11.70;8.60;;;2.20;90.70;;;;;;6246265;23;20016;-77
2023/12/07 00:32:12;;;;;;;12.70;9.47;;;2.20;90.70;;;;;;6247223;23;20016;-77
2023/12/07 00:34:38;;;;;;;11.53;8.30;;;2.20;90.70;;;;;;6246711;23;20012;-77
2023/12/07 00:37:03;;;;;;;12.83;8.37;;;2.20;90.70;;;;;;6246764;23;20337;-77
2023/12/07 00:39:29;;;;;;;12.97;8.37;;;2.10;90.70;;;;;;6246790;23;20012;-77
2023/12/07 00:41:54;;;;;;;11.87;8.50;;;2.10;90.70;;;;;;6246906;23;20008;-77
2023/12/07 00:44:20;;;;;;;14.07;9.33;;;2.10;90.70;;;;;;6219770;23;20020;-77
2023/12/07 00:46:45;;;;;;;12.67;9.10;;;2.10;90.60;;;;;;6219816;23;20044;-77
2023/12/07 00:49:12;;;;;;;12.70;9.43;;;2.10;90.60;;;;;;6219120;23;20173;-77
2023/12/07 00:51:37;;;;;;;10.83;8.60;;;2.10;90.60;;;;;;6246669;23;20330;-77
2023/12/07 00:54:03;;;;;;;14.27;9.63;;;2.10;90.80;;;;;;6246223;23;20008;-77
2023/12/07 00:56:29;;;;;;;14.27;10.50;;;2.10;90.60;;;;;;6246904;23;20023;-77
2023/12/07 00:58:54;;;;;;;15.40;9.80;;;2.10;90.60;;;;;;6246751;23;20008;-77
2023/12/07 01:01:20;;;;;;;12.70;9.37;;;2.10;90.60;;;;;;6246342;23;20040;-77
2023/12/07 01:03:46;;;;;;;12.63;9.03;;;2.10;90.60;;;;;;6246210;23;20084;-77
2023/12/07 01:06:12;;;;;;;12.10;9.13;;;2.10;90.70;;;;;;6219024;23;20016;-77
2023/12/07 01:08:37;;;;;;;12.83;9.03;;;2.10;90.70;;;;;;6246663;23;20018;-77
2023/12/07 01:11:06;;;;;;;12.67;9.07;;;2.10;90.70;;;;;;6245008;23;20008;-77
2023/12/07 01:13:32;;;;;;;11.80;8.77;;;2.10;90.70;;;;;;6246597;23;20004;-77
2023/12/07 01:15:57;;;;;;;13.00;9.17;;;2.10;90.70;;;;;;6219545;23;20452;-77
2023/12/07 01:18:23;;;;;;;14.07;10.43;;;2.10;90.70;;;;;;6246049;23;20015;-77
2023/12/07 01:20:48;;;;;;;15.93;10.27;;;2.10;90.70;;;;;;6219436;23;20099;-77
2023/12/07 01:23:14;;;;;;;14.17;9.47;;;2.10;90.70;;;;;;6246248;23;20020;-77
2023/12/07 01:25:40;;;;;;;10.80;8.23;;;2.10;90.70;;;;;;6246433;23;20024;-77
2023/12/07 01:28:06;;;;;;;11.77;8.90;;;2.10;90.70;;;;;;6245794;23;20336;-77
2023/12/07 01:30:31;;;;;;;11.60;8.33;;;2.10;90.70;;;;;;6246167;23;20012;-77
2023/12/07 01:32:57;;;;;;;11.57;8.30;;;2.10;90.70;;;;;;6245749;23;20027;-77
2023/12/07 01:35:23;;;;;;;13.00;8.67;;;2.10;90.70;;;;;;6246219;23;20333;-77
2023/12/07 01:37:48;;;;;;;12.63;9.13;;;2.10;90.60;;;;;;6245764;23;20038;-77
2023/12/07 01:40:14;;;;;;;10.90;8.50;;;2.10;90.60;;;;;;6219005;23;20062;-77
2023/12/07 01:42:48;;;;;;;12.00;8.67;;;2.10;90.60;;;;;;6245884;23;20011;-77
2023/12/07 01:45:14;;;;;;;11.85;8.82;;;2.10;90.60;;;;;;6218703;23;20069;-77
2023/12/07 01:47:41;;;;;;;10.90;8.40;;;2.10;90.60;;;;;;6218389;23;20083;-77
2023/12/07 01:50:08;;;;;;;12.80;8.93;;;2.10;90.60;;;;;;6246784;23;20008;-77
2023/12/07 01:52:38;;;;;;;11.43;8.13;;;2.10;90.60;;;;;;6217450;23;20389;-77
2023/12/07 01:55:05;;;;;;;13.17;8.93;;;2.10;90.60;;;;;;6216976;23;20008;-77
2023/12/07 01:57:30;;;;;;;13.10;7.90;;;2.10;90.50;;;;;;6242475;23;20009;-77
2023/12/07 01:59:56;;;;;;;12.53;7.87;;;2.10;90.50;;;;;;6243823;23;20015;-77
2023/12/07 02:02:22;;;;;;;11.17;8.23;;;2.10;90.50;;;;;;6244628;23;20005;-77
2023/12/07 02:04:47;;;;;;;11.97;8.73;;;2.10;90.50;;;;;;6245150;23;20069;-78
2023/12/07 02:07:13;;;;;;;12.60;8.87;;;2.10;90.40;;;;;;6193615;23;20012;-77
2023/12/07 02:09:39;;;;;;;10.53;8.00;;;2.10;90.40;;;;;;6216714;23;20016;-77
2023/12/07 02:12:04;;;;;;;11.47;8.10;;;2.10;90.40;;;;;;6244764;23;20066;-77
2023/12/07 02:14:30;;;;;;;12.50;8.87;;;2.10;90.40;;;;;;6192838;23;20015;-77
2023/12/07 02:17:15;;;;;;;13.13;8.50;;;2.10;90.40;;;;;;6244325;23;20020;-77
2023/12/07 02:19:59;;;;;;;10.50;7.53;;;2.10;90.40;;;;;;6244266;23;20012;-77
2023/12/07 02:22:32;;;;;;;11.18;7.60;;;2.10;90.40;;;;;;6216452;23;20008;-77
2023/12/07 02:25:07;;;;;;;10.70;8.03;;;2.00;90.30;;;;;;6243852;23;20326;-77
2023/12/07 02:27:37;;;;;;;12.97;8.87;;;2.00;90.40;;;;;;6244007;23;20016;-77
2023/12/07 02:30:04;;;;;;;11.43;8.40;;;2.00;90.30;;;;;;6243720;23;20004;-77
2023/12/07 02:32:29;;;;;;;11.00;8.20;;;2.00;90.30;;;;;;6216392;23;20019;-77
2023/12/07 02:34:55;;;;;;;12.53;8.30;;;2.00;90.30;;;;;;6216725;23;20036;-77
2023/12/07 02:37:22;;;;;;;13.70;9.03;;;2.00;90.30;;;;;;6191796;23;20016;-77
2023/12/07 02:39:51;;;;;;;11.43;8.33;;;2.00;90.20;;;;;;6217163;23;20135;-77
2023/12/07 02:42:17;;;;;;;11.83;8.37;;;2.00;90.20;;;;;;6216809;23;20125;-77
2023/12/07 02:44:43;;;;;;;12.30;8.63;;;2.00;90.20;;;;;;6243932;23;20126;-77
2023/12/07 02:47:09;;;;;;;11.07;8.03;;;2.00;90.20;;;;;;6243946;23;20091;-77
2023/12/07 02:49:34;;;;;;;11.90;8.60;;;1.90;90.20;;;;;;6243943;23;20042;-77
2023/12/07 02:52:00;;;;;;;11.70;8.37;;;1.90;90.10;;;;;;6217594;23;20023;-77
2023/12/07 02:54:25;;;;;;;12.80;8.67;;;1.90;90.10;;;;;;6216495;23;20020;-77
2023/12/07 02:56:51;;;;;;;12.83;8.57;;;1.90;90.10;;;;;;6192059;23;20016;-77
2023/12/07 02:59:17;;;;;;;11.83;8.40;;;1.90;90.10;;;;;;6216570;23;20463;-77
2023/12/07 03:01:42;;;;;;;13.63;9.63;;;1.90;90.10;;;;;;6216537;23;20028;-77
2023/12/07 03:04:08;;;;;;;12.73;8.57;;;1.90;90.10;;;;;;6217616;23;20019;-77
2023/12/07 03:06:33;;;;;;;12.57;8.70;;;1.90;90.10;;;;;;6217321;23;20150;-77
2023/12/07 03:08:59;;;;;;;10.70;7.83;;;1.80;90.20;;;;;;6217437;23;20016;-77
2023/12/07 03:11:24;;;;;;;10.57;7.83;;;1.90;90.00;;;;;;6217472;23;20087;-77
2023/12/07 03:13:50;;;;;;;11.87;8.27;;;1.80;90.00;;;;;;6191536;23;20012;-77
2023/12/07 03:16:15;;;;;;;9.70;7.23;;;1.80;90.00;;;;;;6192070;23;20016;-77
2023/12/07 03:18:41;;;;;;;10.07;7.53;;;2.00;90.00;;;;;;6217293;23;20353;-77
2023/12/07 03:21:07;;;;;;;11.93;8.47;;;1.80;90.00;;;;;;6192611;23;20026;-77
2023/12/07 03:23:32;;;;;;;12.30;8.40;;;1.80;90.00;;;;;;6193018;23;20028;-77
2023/12/07 03:25:58;;;;;;;9.80;7.03;;;1.80;90.00;;;;;;6219511;23;20023;-77
2023/12/07 03:28:23;;;;;;;11.50;7.90;;;1.80;90.00;;;;;;6222598;23;20022;-76
2023/12/07 03:30:49;;;;;;;11.27;7.73;;;1.70;90.00;;;;;;6223977;23;20392;-76
2023/12/07 03:33:14;;;;;;;12.17;8.30;;;1.70;90.00;;;;;;6224330;23;20019;-76
2023/12/07 03:35:40;;;;;;;13.00;8.87;;;1.70;90.00;;;;;;6243841;23;20013;-76
2023/12/07 03:38:06;;;;;;;10.73;7.60;;;1.70;90.00;;;;;;6216885;23;20099;-76
2023/12/07 03:40:32;;;;;;;12.93;8.63;;;1.70;90.00;;;;;;6217172;23;20090;-76
2023/12/07 03:42:57;;;;;;;11.80;8.70;;;1.70;90.00;;;;;;6216515;23;20536;-76
2023/12/07 03:45:24;;;;;;;11.73;7.73;;;1.70;89.90;;;;;;6216906;23;20472;-76
2023/12/07 03:47:49;;;;;;;10.90;8.03;;;1.70;90.00;;;;;;6216607;23;20447;-76
2023/12/07 03:50:15;;;;;;;12.57;9.37;;;1.70;90.00;;;;;;6244082;23;20012;-76
2023/12/07 03:52:41;;;;;;;13.47;8.93;;;1.60;89.90;;;;;;6243455;23;20017;-76
2023/12/07 03:55:07;;;;;;;12.93;8.57;;;1.70;90.00;;;;;;6243863;23;20004;-76
2023/12/07 03:57:32;;;;;;;14.07;9.43;;;1.60;89.90;;;;;;6243791;23;20016;-76
2023/12/07 03:59:58;;;;;;;13.90;9.60;;;1.60;89.90;;;;;;6216508;23;20016;-76
2023/12/07 04:02:23;;;;;;;13.37;9.57;;;1.60;89.90;;;;;;6246350;23;20135;-75
2023/12/07 04:04:49;;;;;;;13.83;9.67;;;1.60;90.00;;;;;;6245951;23;20456;-75
2023/12/07 04:07:15;;;;;;;13.53;9.17;;;1.60;90.00;;;;;;6245704;23;20381;-75
2023/12/07 04:09:41;;;;;;;14.03;10.33;;;1.60;90.00;;;;;;6245584;23;20024;-76
2023/12/07 04:12:06;;;;;;;14.07;9.67;;;1.60;90.00;;;;;;6218419;23;20019;-76
2023/12/07 04:14:32;;;;;;;14.83;10.27;;;1.60;90.00;;;;;;6218854;23;20015;-76
2023/12/07 04:16:57;;;;;;;14.40;9.93;;;1.60;90.00;;;;;;6218166;23;20023;-76
2023/12/07 04:19:23;;;;;;;15.20;10.70;;;1.60;90.00;;;;;;6219088;23;20043;-76
2023/12/07 04:21:49;;;;;;;12.80;9.50;;;1.60;90.00;;;;;;6218734;23;20008;-76
2023/12/07 04:24:14;;;;;;;13.30;9.47;;;1.60;90.00;;;;;;6245264;23;20073;-76
2023/12/07 04:26:40;;;;;;;14.97;10.23;;;1.60;90.00;;;;;;6245119;23;20008;-75
2023/12/07 04:29:05;;;;;;;14.27;10.23;;;1.60;90.00;;;;;;6218149;23;20009;-76
2023/12/07 04:31:31;;;;;;;13.93;9.83;;;1.60;90.00;;;;;;6245641;23;20032;-76
2023/12/07 04:33:56;;;;;;;14.90;10.23;;;1.60;90.00;;;;;;6245185;23;20046;-76
2023/12/07 04:36:22;;;;;;;16.07;10.77;;;1.60;90.00;;;;;;6193393;23;20059;-76
2023/12/07 04:38:48;;;;;;;13.60;9.83;;;1.60;90.00;;;;;;6219491;23;20494;-76
2023/12/07 04:41:13;;;;;;;15.57;10.90;;;1.60;90.00;;;;;;6220412;23;20008;-76
2023/12/07 04:43:39;;;;;;;16.40;11.43;;;1.60;90.00;;;;;;6218446;23;20092;-75
2023/12/07 04:46:05;;;;;;;15.93;11.10;;;1.60;90.00;;;;;;6243488;23;20007;-75
2023/12/07 04:48:30;;;;;;;16.20;11.43;;;1.50;90.00;;;;;;6217901;23;20016;-75
2023/12/07 04:50:56;;;;;;;15.70;11.43;;;1.60;90.00;;;;;;6217826;23;20019;-75
2023/12/07 04:53:22;;;;;;;16.80;11.20;;;1.60;90.00;;;;;;6244598;23;20315;-75
2023/12/07 04:55:50;;;;;;;20.53;13.90;;;1.50;90.00;;;;;;6244932;23;20012;-75
2023/12/07 04:58:15;;;;;;;16.17;11.63;;;1.60;90.00;;;;;;6218054;23;20063;-75
2023/12/07 05:00:41;;;;;;;17.40;12.47;;;1.60;90.00;;;;;;6245057;23;20380;-75
2023/12/07 05:03:07;;;;;;;20.67;12.87;;;1.50;90.00;;;;;;6218655;23;20074;-75
2023/12/07 05:05:32;;;;;;;17.77;12.07;;;1.60;90.00;;;;;;6218070;23;20062;-75
2023/12/07 05:07:58;;;;;;;19.27;12.73;;;1.60;90.00;;;;;;6245038;23;20065;-75
2023/12/07 05:10:23;;;;;;;17.40;11.93;;;1.50;90.00;;;;;;6245106;23;20015;-75
2023/12/07 05:12:50;;;;;;;21.13;14.60;;;1.60;90.10;;;;;;6218082;23;20058;-75
2023/12/07 05:15:15;;;;;;;16.97;11.77;;;1.50;90.00;;;;;;6245491;23;20062;-75
2023/12/07 05:17:41;;;;;;;17.10;11.90;;;1.60;90.10;;;;;;6245630;23;20368;-76
2023/12/07 05:20:07;;;;;;;19.00;13.00;;;1.50;90.00;;;;;;6218205;23;20008;-77
2023/12/07 05:22:32;;;;;;;17.17;11.13;;;1.60;90.10;;;;;;6244868;23;20031;-76
2023/12/07 05:24:58;;;;;;;24.73;16.03;;;1.50;90.00;;;;;;6217811;23;20024;-76
2023/12/07 05:27:24;;;;;;;21.77;14.63;;;1.50;90.00;;;;;;6192887;23;20429;-76
2023/12/07 05:29:49;;;;;;;22.33;15.40;;;1.50;90.00;;;;;;6193100;23;20090;-76
2023/12/07 05:32:15;;;;;;;20.10;13.70;;;1.50;90.00;;;;;;6245093;23;20012;-76
2023/12/07 05:34:41;;;;;;;17.37;12.23;;;1.50;89.80;;;;;;6245483;23;20040;-76
2023/12/07 05:37:06;;;;;;;16.00;11.53;;;1.50;89.60;;;;;;6245374;23;20302;-77
2023/12/07 05:39:32;;;;;;;18.40;13.17;;;1.50;89.50;;;;;;6218350;23;20122;-76
2023/12/07 05:41:57;;;;;;;22.03;13.80;;;1.50;89.40;;;;;;6221029;23;20134;-76
2023/12/07 05:44:23;;;;;;;19.37;13.17;;;1.40;89.20;;;;;;6221342;23;20024;-76
2023/12/07 05:46:49;;;;;;;17.90;12.97;;;1.40;89.00;;;;;;6251284;23;20008;-76
2023/12/07 05:49:15;;;;;;;17.30;12.27;;;1.40;88.90;;;;;;6225960;23;20013;-76
2023/12/07 05:51:40;;;;;;;18.20;11.40;;;1.30;88.80;;;;;;6226303;23;20046;-76
2023/12/07 05:54:06;;;;;;;18.63;13.33;;;1.30;88.90;;;;;;6220291;23;20078;-75
2023/12/07 05:56:32;;;;;;;15.83;10.90;;;1.30;88.90;;;;;;6218386;23;20019;-75
2023/12/07 05:58:57;;;;;;;19.33;12.23;;;1.30;89.00;;;;;;6245414;23;20449;-75
2023/12/07 06:01:24;;;;;;;18.90;12.60;;;1.30;89.00;;;;;;6218133;23;20081;-75
2023/12/07 06:03:50;;;;;;;17.93;12.37;;;1.30;89.00;;;;;;6245446;23;20082;-75
2023/12/07 06:06:15;;;;;;;19.60;12.13;;;1.30;89.10;;;;;;6218985;23;20012;-76
2023/12/07 06:08:42;;;;;;;17.90;11.57;;;1.30;89.10;;;;;;6245267;23;20012;-76
2023/12/07 06:11:07;;;;;;;17.80;12.17;;;1.30;89.10;;;;;;6245598;23;20039;-76
2023/12/07 06:13:33;;;;;;;17.60;12.50;;;1.30;89.10;;;;;;6245506;23;20034;-76
2023/12/07 06:16:01;;;;;;;19.57;13.20;;;1.30;89.10;;;;;;6245458;23;20030;-76
2023/12/07 06:18:26;;;;;;;17.73;12.33;;;1.30;89.10;;;;;;6218350;23;20004;-76
2023/12/07 06:20:52;;;;;;;22.40;14.10;;;1.30;89.10;;;;;;6245422;23;20463;-76
2023/12/07 06:23:17;;;;;;;20.10;12.37;;;1.20;89.00;;;;;;6244455;23;20087;-76
2023/12/07 06:25:43;;;;;;;19.23;12.77;;;1.20;88.90;;;;;;6245328;23;20030;-76
2023/12/07 06:28:09;;;;;;;18.97;13.37;;;1.20;88.90;;;;;;6245626;23;20333;-75
2023/12/07 06:30:35;;;;;;;16.97;12.40;;;1.20;88.80;;;;;;6245738;23;20464;-75
2023/12/07 06:33:00;;;;;;;17.40;12.63;;;1.20;88.90;;;;;;6217849;23;20008;-75
2023/12/07 06:35:26;;;;;;;18.57;11.90;;;1.20;88.90;;;;;;6218131;23;20079;-75
2023/12/07 06:37:51;;;;;;;17.33;11.97;;;1.20;89.00;;;;;;6218237;23;20012;-75
2023/12/07 06:40:17;;;;;;;19.43;12.60;;;1.20;88.90;;;;;;6193452;23;20096;-75
2023/12/07 06:42:43;;;;;;;16.03;11.43;;;1.20;88.90;;;;;;6244973;23;20433;-75
2023/12/07 06:45:10;;;;;;;18.10;11.97;;;1.20;88.90;;;;;;6218632;23;20016;-76
2023/12/07 06:47:39;;;;;;;17.37;12.20;;;1.10;88.90;;;;;;6245384;23;20356;-76
2023/12/07 06:50:08;;;;;;;17.67;13.13;;;1.10;88.90;;;;;;6218216;23;20012;-76
2023/12/07 06:52:34;;;;;;;17.87;11.63;;;1.20;88.90;;;;;;6242775;23;20020;-76
2023/12/07 06:54:59;;;;;;;17.80;11.67;;;1.10;88.80;;;;;;6243915;23;20416;-76
2023/12/07 06:57:25;;;;;;;19.37;13.03;;;1.10;88.90;;;;;;6244541;23;20054;-76
2023/12/07 06:59:51;;;;;;;19.40;13.67;;;1.10;88.90;;;;;;6244302;23;20031;-76
2023/12/07 07:02:16;;;;;;;17.50;12.17;;;1.10;88.80;;;;;;6242457;23;20008;-76
2023/12/07 07:04:44;;;;;;;18.50;12.13;;;1.10;88.80;;;;;;6244318;23;20353;-76
2023/12/07 07:07:09;;;;;;;17.70;12.90;;;1.10;88.80;;;;;;6244102;23;20463;-76
2023/12/07 07:09:35;;;;;;;18.47;12.80;;;1.10;88.80;;;;;;6217381;23;20012;-76
2023/12/07 07:12:00;;;;;;;18.63;12.07;;;1.00;88.70;;;;;;6217284;23;20008;-76
2023/12/07 07:14:26;;;;;;;18.37;11.80;;;1.10;88.80;;;;;;6244693;23;20031;-76
2023/12/07 07:16:52;;;;;;;16.63;11.70;;;1.10;88.80;;;;;;6217375;23;20039;-76
2023/12/07 07:19:17;;;;;;;18.10;12.40;;;1.00;88.70;;;;;;6244298;23;20019;-76
2023/12/07 07:21:43;;;;;;;16.83;12.23;;;1.00;89.10;;;;;;6217069;23;20014;-76
2023/12/07 07:24:09;;;;;;;17.93;11.63;;;1.00;88.80;;;;;;6243903;23;20091;-76
2023/12/07 07:26:35;;;;;;;17.73;12.00;;;1.00;88.80;;;;;;6244656;23;20062;-76
2023/12/07 07:29:00;;;;;;;18.80;12.97;;;1.00;88.80;;;;;;6243822;23;20016;-76
2023/12/07 07:31:26;;;;;;;19.33;13.77;;;1.00;88.70;;;;;;6217049;23;20023;-76
2023/12/07 07:33:51;;;;;;;17.43;12.40;;;1.00;88.40;;;;;;6217271;23;20038;-76
2023/12/07 07:36:17;;;;;;;17.27;11.80;;;1.00;88.60;;;;;;6217742;23;20012;-76
2023/12/07 07:38:43;;;;;;;22.37;14.53;;;1.00;88.20;;;;;;6192857;23;20011;-76
2023/12/07 07:41:10;;;;;;;21.00;14.30;;;0.90;88.10;;;;;;6244180;23;20028;-76
2023/12/07 07:43:36;;;;;;;24.17;16.67;;;0.90;88.10;;;;;;6244703;23;20073;-76
2023/12/07 07:46:03;;;;;;;19.10;13.67;;;0.90;88.10;;;;;;6244499;23;20086;-76
2023/12/07 07:48:29;;;;;;;22.20;15.57;;;0.90;88.10;;;;;;6218168;23;20023;-76
2023/12/07 07:50:54;;;;;;;24.67;16.33;;;0.80;88.10;;;;;;6244589;23;20012;-76
2023/12/07 07:53:20;;;;;;;28.63;17.97;;;0.80;88.10;;;;;;6217496;23;20069;-76
2023/12/07 07:55:45;;;;;;;26.87;16.90;;;0.80;88.10;;;;;;6193235;23;20013;-76
2023/12/07 07:58:11;;;;;;;28.83;16.67;;;0.80;88.20;;;;;;6218567;23;20024;-76
2023/12/07 08:00:37;;;;;;;24.87;17.37;;;0.70;88.20;;;;;;6195148;23;20051;-77
2023/12/07 08:03:03;;;;;;;23.07;15.77;;;0.70;88.40;;;;;;6198768;23;20008;-77
2023/12/07 08:05:28;;;;;;;29.33;17.70;;;0.70;88.50;;;;;;6199465;23;20016;-76
2023/12/07 08:07:54;;;;;;;21.50;14.93;;;0.70;88.60;;;;;;6224589;23;20016;-76
2023/12/07 08:10:20;;;;;;;22.97;14.80;;;0.70;88.70;;;;;;6225820;23;20012;-76
2023/12/07 08:12:45;;;;;;;25.93;17.57;;;0.70;88.80;;;;;;6222121;23;20112;-77
2023/12/07 08:15:11;;;;;;;26.73;16.10;;;0.60;88.90;;;;;;6221909;23;20401;-76
2023/12/07 08:17:41;;;;;;;23.07;15.33;;;0.70;89.10;;;;;;6231172;23;20012;-76
2023/12/07 08:20:12;;;;;;;21.33;15.13;;;0.70;89.30;;;;;;6228359;23;20048;-76
2023/12/07 08:22:39;;;;;;;26.20;16.67;;;0.70;89.40;;;;;;6193333;23;20024;-76
2023/12/07 08:25:05;;;;;;;27.17;17.13;;;0.70;90.00;;;;;;6217216;23;20035;-76
2023/12/07 08:27:32;;;;;;;27.00;17.00;;;0.70;89.70;;;;;;6217269;23;20020;-76
2023/12/07 08:29:58;;;;;;;31.23;18.47;;;0.70;89.70;;;;;;6192036;23;20023;-76
2023/12/07 08:32:25;;;;;;;27.40;19.07;;;0.80;89.90;;;;;;6191799;23;20016;-76
2023/12/07 08:34:52;;;;;;;33.67;19.53;;;0.70;89.90;;;;;;6216967;23;20350;-76
2023/12/07 08:37:18;;;;;;;31.80;18.87;;;0.70;90.00;;;;;;6216797;23;20083;-77
2023/12/07 08:39:43;;;;;;;30.03;19.47;;;0.70;90.00;;;;;;6217124;23;20087;-76
2023/12/07 08:42:09;;;;;;;29.00;19.80;;;0.70;90.00;;;;;;6243962;23;20052;-76
2023/12/07 08:44:34;;;;;;;27.63;18.77;;;0.70;90.00;;;;;;6217162;23;20012;-76
2023/12/07 08:47:00;;;;;;;30.93;19.40;;;0.70;90.10;;;;;;6218102;23;20054;-77
2023/12/07 08:49:25;;;;;;;29.40;19.20;;;0.70;90.10;;;;;;6245465;23;20342;-76
2023/12/07 08:51:52;;;;;;;32.17;19.90;;;0.70;90.20;;;;;;6218977;23;20062;-76
2023/12/07 08:54:18;;;;;;;31.17;19.73;;;0.80;90.20;;;;;;6218688;23;20337;-76
2023/12/07 08:56:45;;;;;;;29.70;19.07;;;0.80;90.30;;;;;;6218742;23;20020;-76
2023/12/07 08:59:10;;;;;;;31.77;20.77;;;0.80;90.30;;;;;;6218770;23;20008;-76
2023/12/07 09:01:36;;;;;;;27.80;18.40;;;0.80;90.40;;;;;;6193583;23;20392;-75
2023/12/07 09:04:02;;;;;;;32.63;20.37;;;0.80;90.40;;;;;;6218422;23;20019;-76
2023/12/07 09:06:27;;;;;;;33.60;19.80;;;0.80;90.70;;;;;;6218054;23;20520;-76
2023/12/07 09:08:53;;;;;;;31.97;21.73;;;0.90;90.60;;;;;;6219020;23;20011;-77
2023/12/07 09:11:18;;;;;;;38.53;23.60;;;0.90;90.60;;;;;;6218697;23;20048;-76
2023/12/07 09:13:44;;;;;;;34.70;21.93;;;0.90;90.70;;;;;;6218381;23;20092;-76
2023/12/07 09:16:10;;;;;;;34.77;22.07;;;0.90;90.80;;;;;;6218582;23;20008;-76
2023/12/07 09:18:36;;;;;;;34.30;22.50;;;1.00;90.90;;;;;;6218034;23;20479;-76
2023/12/07 09:21:02;;;;;;;36.57;22.50;;;1.10;91.00;;;;;;6218478;23;20061;-76
2023/12/07 09:23:28;;;;;;;39.17;24.63;;;1.10;91.00;;;;;;6193244;23;20471;-76
2023/12/07 09:25:54;;;;;;;37.37;23.00;;;1.10;91.10;;;;;;6218497;23;20016;-77
2023/12/07 09:28:21;;;;;;;39.70;24.07;;;1.20;91.10;;;;;;6218576;23;20069;-77
2023/12/07 09:30:46;;;;;;;38.80;23.47;;;1.20;91.10;;;;;;6245245;23;20016;-77
2023/12/07 09:33:12;;;;;;;35.93;22.63;;;1.30;91.10;;;;;;6217853;23;20016;-77
2023/12/07 09:35:39;;;;;;;35.50;23.73;;;1.30;91.10;;;;;;6218173;23;20020;-77
2023/12/07 09:38:04;;;;;;;37.73;22.40;;;1.30;91.00;;;;;;6218227;23;20008;-77
2023/12/07 09:40:30;;;;;;;50.37;22.47;;;1.30;91.00;;;;;;6217888;23;20026;-77
2023/12/07 09:42:56;;;;;;;37.13;22.03;;;1.30;91.00;;;;;;6217989;23;20012;-78
2023/12/07 09:45:22;;;;;;;73.70;23.27;;;1.30;90.90;;;;;;6217479;23;20319;-77
2023/12/07 09:47:50;;;;;;;59.03;22.90;;;1.30;90.90;;;;;;6218119;23;20352;-77
2023/12/07 09:50:22;;;;;;;28.57;18.83;;;1.30;90.90;;;;;;6193106;23;20345;-78
2023/12/07 09:52:54;;;;;;;56.40;21.97;;;1.30;90.90;;;;;;6193129;23;20031;-78
2023/12/07 09:55:19;;;;;;;36.73;21.10;;;1.30;90.90;;;;;;6242972;23;20008;-77
2023/12/07 09:57:49;;;;;;;39.20;20.67;;;1.30;90.90;;;;;;6192255;23;20039;-77
2023/12/07 10:00:15;;;;;;;48.27;20.07;;;1.30;90.90;;;;;;6217675;23;20058;-77
2023/12/07 10:02:42;;;;;;;30.07;19.00;;;1.30;90.80;;;;;;6245163;23;20082;-77
2023/12/07 10:05:18;;;;;;;52.23;19.93;;;1.30;90.90;;;;;;6245452;23;20047;-78
2023/12/07 10:07:48;;;;;;;37.33;20.27;;;1.30;90.90;;;;;;6245858;23;20020;-78
2023/12/07 10:10:15;;;;;;;29.00;20.10;;;1.30;90.90;;;;;;6223795;23;20027;-78
2023/12/07 10:13:01;;;;;;;30.50;19.20;;;1.30;90.90;;;;;;6195370;23;20042;-78
2023/12/07 10:15:28;;;;;;;32.63;20.77;;;1.30;91.00;;;;;;6196713;23;20024;-78
2023/12/07 10:17:57;;;;;;;43.27;21.23;;;1.30;91.00;;;;;;6222745;23;20050;-78
2023/12/07 10:20:24;;;;;;;42.90;20.63;;;1.40;91.10;;;;;;6224054;23;20020;-78
2023/12/07 10:23:11;;;;;;;45.57;21.43;;;1.40;91.00;;;;;;6223374;23;20020;-78
2023/12/07 10:25:37;;;;;;;60.23;22.00;;;1.40;91.10;;;;;;6222666;23;20023;-78
2023/12/07 10:28:07;;;;;;;62.60;20.23;;;1.30;91.00;;;;;;6222051;23;20012;-78
2023/12/07 10:30:36;;;;;;;54.10;20.93;;;1.40;91.00;;;;;;6221339;23;20066;-78
2023/12/07 10:33:09;;;;;;;68.67;20.67;;;1.40;91.00;;;;;;6219847;23;20019;-78
2023/12/07 10:35:42;;;;;;;59.13;19.37;;;1.30;91.00;;;;;;6219600;23;20016;-77
2023/12/07 10:38:09;;;;;;;27.97;18.93;;;1.30;91.10;;;;;;6219685;23;20034;-78
2023/12/07 10:40:34;;;;;;;34.60;17.80;;;1.40;91.00;;;;;;6218180;23;20008;-78
2023/12/07 10:43:05;;;;;;;77.10;19.70;;;1.40;91.00;;;;;;6192476;23;20073;-78
2023/12/07 10:45:32;;;;;;;82.50;20.60;;;1.40;91.00;;;;;;6216949;23;20012;-78
2023/12/07 10:48:07;;;;;;;35.03;18.47;;;1.40;91.00;;;;;;6242426;23;20014;-78
2023/12/07 10:50:35;;;;;;;46.03;19.03;;;1.40;91.00;;;;;;6217550;23;20008;-78
2023/12/07 10:53:31;;;;;;;49.90;20.30;;;1.30;91.00;;;;;;6217494;23;20078;-79
2023/12/07 10:55:59;;;;;;;;;;;1.30;91.00;;;;;;6217332;23;20042;-78
2023/12/07 10:58:26;;;;;;;27.23;17.20;;;1.30;90.90;;;;;;6192070;23;19916;-78
2023/12/07 11:00:55;;;;;;;34.83;17.43;;;1.30;91.00;;;;;;6217251;23;20008;-78
2023/12/07 11:03:22;;;;;;;26.70;17.63;;;1.30;91.00;;;;;;6216944;23;20488;-78
2023/12/07 11:05:48;;;;;;;57.20;18.77;;;1.30;91.00;;;;;;6217124;23;20384;-78
2023/12/07 11:08:52;;;;;;;44.17;19.27;;;1.30;91.00;;;;;;6244403;23;20066;-78
2023/12/07 11:11:28;;;;;;;68.83;19.23;;;1.30;91.00;;;;;;6186113;23;20445;-78
2023/12/07 11:13:59;;;;;;;61.97;19.90;;;1.30;91.00;;;;;;6244240;23;20019;-78
2023/12/07 11:16:32;;;;;;;85.13;21.07;;;1.30;90.90;;;;;;6242729;23;20453;-78
2023/12/07 11:18:59;;;;;;;40.60;19.13;;;1.20;90.90;;;;;;6244547;23;20019;-78
2023/12/07 11:21:25;;;;;;;32.47;18.60;;;1.40;90.90;;;;;;6244015;23;20012;-78
2023/12/07 11:23:53;;;;;;;44.77;20.13;;;1.30;90.90;;;;;;6192157;23;20044;-78
2023/12/07 11:26:23;;;;;;;53.70;20.17;;;1.30;91.00;;;;;;6217734;23;20024;-77
2023/12/07 11:28:49;;;;;;;28.87;18.10;;;1.30;91.00;;;;;;6217146;23;20008;-77
2023/12/07 11:31:15;;;;;;;52.77;19.77;;;1.30;91.00;;;;;;6244404;23;20441;-77
2023/12/07 11:33:41;;;;;;;79.30;20.50;;;1.30;91.20;;;;;;6216860;23;20356;-77
2023/12/07 11:36:09;;;;;;;33.77;18.47;;;1.30;91.10;;;;;;6244100;23;20087;-77
2023/12/07 11:38:36;;;;;;;51.93;19.40;;;1.30;91.00;;;;;;6244092;23;20075;-77
2023/12/07 11:41:02;;;;;;;34.50;17.43;;;1.30;91.10;;;;;;6243228;23;20295;-77
2023/12/07 11:43:40;;;;;;;66.27;17.77;;;1.30;91.10;;;;;;6242213;23;20077;-77
2023/12/07 11:46:07;;;;;;;53.90;18.80;;;1.30;91.10;;;;;;6217157;23;20027;-76
2023/12/07 11:48:33;;;;;;;74.10;22.30;;;1.30;91.10;;;;;;6216728;23;20072;-76
2023/12/07 11:51:10;;;;;;;59.77;21.63;;;1.30;91.10;;;;;;6217218;23;20012;-76
2023/12/07 11:53:37;;;;;;;54.00;22.20;;;1.30;91.20;;;;;;6216949;23;20008;-77
2023/12/07 11:56:05;;;;;;;60.73;22.30;;;1.30;91.10;;;;;;6217174;23;20008;-77
2023/12/07 11:58:32;;;;;;;78.10;24.30;;;1.30;91.10;;;;;;6217964;23;20071;-77
2023/12/07 12:00:58;;;;;;;66.27;24.77;;;1.30;91.20;;;;;;6244971;23;20012;-76
2023/12/07 12:03:28;;;;;;;59.30;24.87;;;1.30;91.30;;;;;;6216781;23;20062;-77
2023/12/07 12:05:55;;;;;;;58.73;25.77;;;1.30;91.20;;;;;;6217110;23;20012;-77
2023/12/07 12:08:21;;;;;;;61.73;28.60;;;1.30;91.20;;;;;;6217024;23;20535;-77
2023/12/07 12:10:49;;;;;;;57.53;27.47;;;1.30;91.20;;;;;;6216690;23;20434;-78
2023/12/07 12:13:15;;;;;;;47.57;26.77;;;1.70;91.40;;;;;;6245362;23;20016;-76
2023/12/07 12:15:41;;;;;;;55.13;27.03;;;1.30;91.30;;;;;;6243332;23;20318;-76
2023/12/07 12:18:08;;;;;;;59.87;24.90;;;1.40;91.30;;;;;;6243580;23;20008;-77
2023/12/07 12:20:34;;;;;;;60.20;25.00;;;1.40;91.30;;;;;;6216356;23;20035;-77
2023/12/07 12:23:00;;;;;;;58.93;25.73;;;1.40;91.30;;;;;;6245748;23;20032;-78
2023/12/07 12:25:30;;;;;;;41.00;22.93;;;1.40;91.30;;;;;;6246201;23;20125;-77
2023/12/07 12:28:04;;;;;;;50.53;20.73;;;1.40;91.30;;;;;;6247122;23;20083;-78
2023/12/07 12:30:31;;;;;;;59.13;22.47;;;1.40;91.40;;;;;;6246670;23;20439;-77
2023/12/07 12:32:57;;;;;;;38.80;21.30;;;1.40;91.30;;;;;;6247019;23;20004;-77
2023/12/07 12:35:22;;;;;;;43.83;21.33;;;1.40;91.30;;;;;;6220491;23;20050;-77
2023/12/07 12:37:49;;;;;;;54.17;21.53;;;1.40;91.40;;;;;;6247950;23;20058;-77